sensor_id;sensor_type;location;lat;lon;timestamp;temperature;humidity
44851;DHT22;30583;48.714;9.386;2022-12-07T00:00:38;5.70;78.80
44851;DHT22;30583;48.714;9.386;2022-12-07T00:03:04;5.80;78.50
44851;DHT22;30583;48.714;9.386;2022-12-07T00:05:30;5.80;78.50
44851;DHT22;30583;48.714;9.386;2022-12-07T00:07:55;5.80;78.50
44851;DHT22;30583;48.714;9.386;2022-12-07T00:10:21;5.90;78.40
44851;DHT22;30583;48.714;9.386;2022-12-07T00:12:46;5.80;78.30
44851;DHT22;30583;48.714;9.386;2022-12-07T00:15:12;5.90;78.30
44851;DHT22;30583;48.714;9.386;2022-12-07T00:17:37;5.80;78.20
44851;DHT22;30583;48.714;9.386;2022-12-07T00:20:03;5.70;78.50
44851;DHT22;30583;48.714;9.386;2022-12-07T00:22:29;5.80;78.00
44851;DHT22;30583;48.714;9.386;2022-12-07T00:24:55;5.70;78.40
44851;DHT22;30583;48.714;9.386;2022-12-07T00:27:20;5.80;78.70
44851;DHT22;30583;48.714;9.386;2022-12-07T00:29:46;5.90;78.00
44851;DHT22;30583;48.714;9.386;2022-12-07T00:32:11;5.90;77.60
44851;DHT22;30583;48.714;9.386;2022-12-07T00:34:37;5.70;77.50
44851;DHT22;30583;48.714;9.386;2022-12-07T00:37:02;5.60;78.30
44851;DHT22;30583;48.714;9.386;2022-12-07T00:39:28;5.50;78.40
44851;DHT22;30583;48.714;9.386;2022-12-07T00:41:54;5.60;78.30
44851;DHT22;30583;48.714;9.386;2022-12-07T00:44:19;5.70;77.90
44851;DHT22;30583;48.714;9.386;2022-12-07T00:46:45;5.70;77.90
44851;DHT22;30583;48.714;9.386;2022-12-07T00:49:10;5.70;78.10
44851;DHT22;30583;48.714;9.386;2022-12-07T00:51:36;5.70;77.80
44851;DHT22;30583;48.714;9.386;2022-12-07T00:54:02;5.80;77.80
44851;DHT22;30583;48.714;9.386;2022-12-07T00:56:28;5.70;77.70
44851;DHT22;30583;48.714;9.386;2022-12-07T00:58:56;5.70;78.20
44851;DHT22;30583;48.714;9.386;2022-12-07T01:01:23;5.70;77.80
44851;DHT22;30583;48.714;9.386;2022-12-07T01:03:49;5.60;77.60
44851;DHT22;30583;48.714;9.386;2022-12-07T01:06:16;5.60;78.40
44851;DHT22;30583;48.714;9.386;2022-12-07T01:08:42;5.60;78.20
44851;DHT22;30583;48.714;9.386;2022-12-07T01:11:11;5.70;78.00
44851;DHT22;30583;48.714;9.386;2022-12-07T01:13:37;5.70;77.90
44851;DHT22;30583;48.714;9.386;2022-12-07T01:16:05;5.70;77.70
44851;DHT22;30583;48.714;9.386;2022-12-07T01:18:33;5.60;78.00
44851;DHT22;30583;48.714;9.386;2022-12-07T01:21:05;5.70;78.30
44851;DHT22;30583;48.714;9.386;2022-12-07T01:23:32;5.70;77.40
44851;DHT22;30583;48.714;9.386;2022-12-07T01:26:00;5.60;77.50
44851;DHT22;30583;48.714;9.386;2022-12-07T01:28:26;5.60;77.60
44851;DHT22;30583;48.714;9.386;2022-12-07T01:31:10;5.60;77.40
44851;DHT22;30583;48.714;9.386;2022-12-07T01:33:37;5.60;77.20
44851;DHT22;30583;48.714;9.386;2022-12-07T01:36:08;5.40;78.30
44851;DHT22;30583;48.714;9.386;2022-12-07T01:38:38;5.50;78.10
44851;DHT22;30583;48.714;9.386;2022-12-07T01:41:03;5.60;77.70
44851;DHT22;30583;48.714;9.386;2022-12-07T01:43:31;5.60;77.20
44851;DHT22;30583;48.714;9.386;2022-12-07T01:45:57;5.60;77.10
44851;DHT22;30583;48.714;9.386;2022-12-07T01:48:31;5.70;76.80
44851;DHT22;30583;48.714;9.386;2022-12-07T01:51:02;5.70;76.70
44851;DHT22;30583;48.714;9.386;2022-12-07T01:53:30;5.70;76.60
44851;DHT22;30583;48.714;9.386;2022-12-07T01:55:58;5.70;77.10
44851;DHT22;30583;48.714;9.386;2022-12-07T01:58:24;5.70;77.00
44851;DHT22;30583;48.714;9.386;2022-12-07T02:00:50;5.70;76.50
44851;DHT22;30583;48.714;9.386;2022-12-07T02:03:34;5.70;76.30
44851;DHT22;30583;48.714;9.386;2022-12-07T02:06:02;5.60;76.60
44851;DHT22;30583;48.714;9.386;2022-12-07T02:08:28;5.60;76.80
44851;DHT22;30583;48.714;9.386;2022-12-07T02:10:54;5.40;76.50
44851;DHT22;30583;48.714;9.386;2022-12-07T02:13:22;5.40;76.80
44851;DHT22;30583;48.714;9.386;2022-12-07T02:26:39;5.30;77.10
44851;DHT22;30583;48.714;9.386;2022-12-07T02:29:17;5.30;76.60
44851;DHT22;30583;48.714;9.386;2022-12-07T02:35:02;5.30;76.80
44851;DHT22;30583;48.714;9.386;2022-12-07T02:37:48;5.40;76.90
44851;DHT22;30583;48.714;9.386;2022-12-07T02:43:25;5.50;76.10
44851;DHT22;30583;48.714;9.386;2022-12-07T02:45:53;5.50;76.50
44851;DHT22;30583;48.714;9.386;2022-12-07T02:48:20;5.50;76.30
44851;DHT22;30583;48.714;9.386;2022-12-07T02:50:51;5.50;76.30
44851;DHT22;30583;48.714;9.386;2022-12-07T02:56:06;5.50;76.40
44851;DHT22;30583;48.714;9.386;2022-12-07T03:01:50;5.30;76.70
44851;DHT22;30583;48.714;9.386;2022-12-07T03:04:41;5.40;76.60
44851;DHT22;30583;48.714;9.386;2022-12-07T03:13:17;5.20;77.40
44851;DHT22;30583;48.714;9.386;2022-12-07T03:18:23;5.30;77.20
44851;DHT22;30583;48.714;9.386;2022-12-07T03:20:52;5.30;77.20
44851;DHT22;30583;48.714;9.386;2022-12-07T03:23:19;5.20;77.00
44851;DHT22;30583;48.714;9.386;2022-12-07T03:25:48;5.10;77.80
44851;DHT22;30583;48.714;9.386;2022-12-07T03:28:17;5.20;77.80
44851;DHT22;30583;48.714;9.386;2022-12-07T03:31:10;5.30;77.70
44851;DHT22;30583;48.714;9.386;2022-12-07T03:33:57;5.10;77.80
44851;DHT22;30583;48.714;9.386;2022-12-07T03:41:42;5.30;77.60
44851;DHT22;30583;48.714;9.386;2022-12-07T03:44:08;5.20;77.70
44851;DHT22;30583;48.714;9.386;2022-12-07T03:46:50;5.10;77.80
44851;DHT22;30583;48.714;9.386;2022-12-07T03:49:27;4.90;78.40
44851;DHT22;30583;48.714;9.386;2022-12-07T03:52:03;4.80;79.40
44851;DHT22;30583;48.714;9.386;2022-12-07T03:54:57;4.90;78.90
44851;DHT22;30583;48.714;9.386;2022-12-07T03:57:26;4.70;79.60
44851;DHT22;30583;48.714;9.386;2022-12-07T03:59:54;4.60;80.10
44851;DHT22;30583;48.714;9.386;2022-12-07T04:02:22;4.70;80.00
44851;DHT22;30583;48.714;9.386;2022-12-07T04:04:48;4.80;79.70
44851;DHT22;30583;48.714;9.386;2022-12-07T04:07:14;4.80;79.10
44851;DHT22;30583;48.714;9.386;2022-12-07T04:09:40;4.80;79.40
44851;DHT22;30583;48.714;9.386;2022-12-07T04:12:06;4.40;80.40
44851;DHT22;30583;48.714;9.386;2022-12-07T04:14:31;4.40;80.90
44851;DHT22;30583;48.714;9.386;2022-12-07T04:16:58;4.60;80.40
44851;DHT22;30583;48.714;9.386;2022-12-07T04:19:26;4.80;80.00
44851;DHT22;30583;48.714;9.386;2022-12-07T04:21:53;4.80;79.10
44851;DHT22;30583;48.714;9.386;2022-12-07T04:24:19;4.60;79.70
44851;DHT22;30583;48.714;9.386;2022-12-07T04:26:45;4.60;79.60
44851;DHT22;30583;48.714;9.386;2022-12-07T04:29:11;4.70;79.70
44851;DHT22;30583;48.714;9.386;2022-12-07T04:31:39;4.90;79.40
44851;DHT22;30583;48.714;9.386;2022-12-07T04:34:05;4.70;79.20
44851;DHT22;30583;48.714;9.386;2022-12-07T04:36:32;4.70;79.00
44851;DHT22;30583;48.714;9.386;2022-12-07T04:38:58;4.60;79.30
44851;DHT22;30583;48.714;9.386;2022-12-07T04:41:24;4.70;79.70
44851;DHT22;30583;48.714;9.386;2022-12-07T04:44:04;4.70;79.40
44851;DHT22;30583;48.714;9.386;2022-12-07T04:46:32;4.60;79.70
44851;DHT22;30583;48.714;9.386;2022-12-07T04:48:59;4.80;79.60
44851;DHT22;30583;48.714;9.386;2022-12-07T04:51:27;4.90;79.10
44851;DHT22;30583;48.714;9.386;2022-12-07T04:53:53;4.90;79.00
44851;DHT22;30583;48.714;9.386;2022-12-07T04:56:19;4.90;78.90
44851;DHT22;30583;48.714;9.386;2022-12-07T04:58:46;4.90;79.00
44851;DHT22;30583;48.714;9.386;2022-12-07T05:01:13;4.80;79.20
44851;DHT22;30583;48.714;9.386;2022-12-07T05:03:39;4.60;79.30
44851;DHT22;30583;48.714;9.386;2022-12-07T05:06:06;4.60;79.80
44851;DHT22;30583;48.714;9.386;2022-12-07T05:08:33;4.30;80.00
44851;DHT22;30583;48.714;9.386;2022-12-07T05:10:59;4.30;80.40
44851;DHT22;30583;48.714;9.386;2022-12-07T05:13:25;4.30;80.30
44851;DHT22;30583;48.714;9.386;2022-12-07T05:15:50;4.20;80.50
44851;DHT22;30583;48.714;9.386;2022-12-07T05:18:16;4.10;80.80
44851;DHT22;30583;48.714;9.386;2022-12-07T05:20:42;4.20;80.40
44851;DHT22;30583;48.714;9.386;2022-12-07T05:23:08;4.40;79.90
44851;DHT22;30583;48.714;9.386;2022-12-07T05:25:34;4.40;80.10
44851;DHT22;30583;48.714;9.386;2022-12-07T05:28:00;4.40;79.90
44851;DHT22;30583;48.714;9.386;2022-12-07T05:30:26;4.30;80.20
44851;DHT22;30583;48.714;9.386;2022-12-07T05:32:52;4.50;79.90
44851;DHT22;30583;48.714;9.386;2022-12-07T05:35:18;4.70;79.60
44851;DHT22;30583;48.714;9.386;2022-12-07T05:37:44;4.70;79.50
44851;DHT22;30583;48.714;9.386;2022-12-07T05:40:11;4.60;79.70
44851;DHT22;30583;48.714;9.386;2022-12-07T05:42:37;4.80;79.20
44851;DHT22;30583;48.714;9.386;2022-12-07T05:45:04;4.70;78.80
44851;DHT22;30583;48.714;9.386;2022-12-07T05:47:29;4.70;79.40
44851;DHT22;30583;48.714;9.386;2022-12-07T05:49:55;4.60;79.40
44851;DHT22;30583;48.714;9.386;2022-12-07T05:52:21;4.60;79.50
44851;DHT22;30583;48.714;9.386;2022-12-07T05:54:47;4.60;79.40
44851;DHT22;30583;48.714;9.386;2022-12-07T05:57:12;4.40;80.00
44851;DHT22;30583;48.714;9.386;2022-12-07T05:59:38;4.60;80.50
44851;DHT22;30583;48.714;9.386;2022-12-07T06:02:06;4.70;80.10
44851;DHT22;30583;48.714;9.386;2022-12-07T06:04:34;4.70;80.20
44851;DHT22;30583;48.714;9.386;2022-12-07T06:07:00;5.10;79.00
44851;DHT22;30583;48.714;9.386;2022-12-07T06:09:27;4.60;78.60
44851;DHT22;30583;48.714;9.386;2022-12-07T06:11:54;4.30;80.30
44851;DHT22;30583;48.714;9.386;2022-12-07T06:14:39;4.70;79.50
44851;DHT22;30583;48.714;9.386;2022-12-07T06:17:05;5.10;79.20
44851;DHT22;30583;48.714;9.386;2022-12-07T06:19:31;5.30;78.20
44851;DHT22;30583;48.714;9.386;2022-12-07T06:21:57;5.10;77.80
44851;DHT22;30583;48.714;9.386;2022-12-07T06:24:23;4.70;78.70
44851;DHT22;30583;48.714;9.386;2022-12-07T06:26:49;4.60;79.20
44851;DHT22;30583;48.714;9.386;2022-12-07T06:29:15;4.80;78.90
44851;DHT22;30583;48.714;9.386;2022-12-07T06:31:41;4.70;78.70
44851;DHT22;30583;48.714;9.386;2022-12-07T06:34:10;4.80;78.90
44851;DHT22;30583;48.714;9.386;2022-12-07T06:36:37;4.80;78.20
44851;DHT22;30583;48.714;9.386;2022-12-07T06:39:03;12.00;77.70
44851;DHT22;30583;48.714;9.386;2022-12-07T06:41:29;10.10;62.90
44851;DHT22;30583;48.714;9.386;2022-12-07T06:43:55;6.60;70.10
44851;DHT22;30583;48.714;9.386;2022-12-07T06:46:20;5.30;75.60
44851;DHT22;30583;48.714;9.386;2022-12-07T06:48:46;4.70;77.50
44851;DHT22;30583;48.714;9.386;2022-12-07T06:51:12;4.80;77.90
44851;DHT22;30583;48.714;9.386;2022-12-07T06:53:37;4.70;78.20
44851;DHT22;30583;48.714;9.386;2022-12-07T06:56:04;4.70;78.70
44851;DHT22;30583;48.714;9.386;2022-12-07T06:58:30;4.70;78.70
44851;DHT22;30583;48.714;9.386;2022-12-07T07:00:56;4.70;78.30
44851;DHT22;30583;48.714;9.386;2022-12-07T07:03:22;4.50;78.70
44851;DHT22;30583;48.714;9.386;2022-12-07T07:05:48;4.70;78.60
44851;DHT22;30583;48.714;9.386;2022-12-07T07:08:13;4.60;78.20
44851;DHT22;30583;48.714;9.386;2022-12-07T07:10:40;4.60;78.70
44851;DHT22;30583;48.714;9.386;2022-12-07T07:13:06;4.60;78.50
44851;DHT22;30583;48.714;9.386;2022-12-07T07:15:32;4.30;78.80
44851;DHT22;30583;48.714;9.386;2022-12-07T07:17:58;4.30;79.00
44851;DHT22;30583;48.714;9.386;2022-12-07T07:20:23;4.60;78.70
44851;DHT22;30583;48.714;9.386;2022-12-07T07:22:49;4.30;78.70
44851;DHT22;30583;48.714;9.386;2022-12-07T07:25:15;4.20;78.90
44851;DHT22;30583;48.714;9.386;2022-12-07T07:27:41;4.30;79.10
44851;DHT22;30583;48.714;9.386;2022-12-07T07:30:07;4.40;79.00
44851;DHT22;30583;48.714;9.386;2022-12-07T07:32:33;4.60;78.30
44851;DHT22;30583;48.714;9.386;2022-12-07T07:34:59;4.40;78.70
44851;DHT22;30583;48.714;9.386;2022-12-07T07:37:25;4.50;78.70
44851;DHT22;30583;48.714;9.386;2022-12-07T07:39:51;4.40;78.10
44851;DHT22;30583;48.714;9.386;2022-12-07T07:42:16;4.50;78.40
44851;DHT22;30583;48.714;9.386;2022-12-07T07:44:42;4.70;77.90
44851;DHT22;30583;48.714;9.386;2022-12-07T07:47:07;4.60;77.70
44851;DHT22;30583;48.714;9.386;2022-12-07T07:49:33;4.60;77.90
44851;DHT22;30583;48.714;9.386;2022-12-07T07:51:58;4.70;77.70
44851;DHT22;30583;48.714;9.386;2022-12-07T07:54:24;4.80;77.50
44851;DHT22;30583;48.714;9.386;2022-12-07T07:56:49;5.00;76.80
44851;DHT22;30583;48.714;9.386;2022-12-07T07:59:15;5.00;76.80
44851;DHT22;30583;48.714;9.386;2022-12-07T08:01:41;5.10;76.80
44851;DHT22;30583;48.714;9.386;2022-12-07T08:04:06;5.10;77.20
44851;DHT22;30583;48.714;9.386;2022-12-07T08:06:32;5.00;77.30
44851;DHT22;30583;48.714;9.386;2022-12-07T08:08:58;5.00;77.70
44851;DHT22;30583;48.714;9.386;2022-12-07T08:11:24;4.90;77.70
44851;DHT22;30583;48.714;9.386;2022-12-07T08:13:49;4.90;78.40
44851;DHT22;30583;48.714;9.386;2022-12-07T08:16:15;5.00;77.90
44851;DHT22;30583;48.714;9.386;2022-12-07T08:18:42;4.90;78.40
44851;DHT22;30583;48.714;9.386;2022-12-07T08:21:11;4.90;78.50
44851;DHT22;30583;48.714;9.386;2022-12-07T08:23:36;4.90;78.70
44851;DHT22;30583;48.714;9.386;2022-12-07T08:26:04;5.00;78.40
44851;DHT22;30583;48.714;9.386;2022-12-07T08:28:30;4.50;79.20
44851;DHT22;30583;48.714;9.386;2022-12-07T08:31:04;4.80;79.20
44851;DHT22;30583;48.714;9.386;2022-12-07T08:33:30;5.10;78.20
44851;DHT22;30583;48.714;9.386;2022-12-07T08:36:03;5.10;77.40
44851;DHT22;30583;48.714;9.386;2022-12-07T08:38:29;4.90;77.30
44851;DHT22;30583;48.714;9.386;2022-12-07T08:40:55;4.90;77.50
44851;DHT22;30583;48.714;9.386;2022-12-07T08:43:22;4.80;76.90
44851;DHT22;30583;48.714;9.386;2022-12-07T08:48:48;5.00;76.70
44851;DHT22;30583;48.714;9.386;2022-12-07T08:51:14;5.10;76.10
44851;DHT22;30583;48.714;9.386;2022-12-07T08:53:40;5.30;76.30
44851;DHT22;30583;48.714;9.386;2022-12-07T08:56:06;5.30;76.50
44851;DHT22;30583;48.714;9.386;2022-12-07T08:58:33;5.10;76.60
44851;DHT22;30583;48.714;9.386;2022-12-07T09:00:59;5.20;76.10
44851;DHT22;30583;48.714;9.386;2022-12-07T09:03:25;5.10;76.00
44851;DHT22;30583;48.714;9.386;2022-12-07T09:05:51;5.10;76.00
44851;DHT22;30583;48.714;9.386;2022-12-07T09:08:17;5.20;75.80
44851;DHT22;30583;48.714;9.386;2022-12-07T09:10:43;5.30;75.60
44851;DHT22;30583;48.714;9.386;2022-12-07T09:13:08;5.40;75.70
44851;DHT22;30583;48.714;9.386;2022-12-07T09:15:34;5.10;75.50
44851;DHT22;30583;48.714;9.386;2022-12-07T09:17:59;5.10;76.50
44851;DHT22;30583;48.714;9.386;2022-12-07T09:20:25;5.20;76.00
44851;DHT22;30583;48.714;9.386;2022-12-07T09:22:51;5.00;76.40
44851;DHT22;30583;48.714;9.386;2022-12-07T09:25:16;5.20;76.40
44851;DHT22;30583;48.714;9.386;2022-12-07T09:27:42;5.40;75.90
44851;DHT22;30583;48.714;9.386;2022-12-07T09:30:08;5.30;76.20
44851;DHT22;30583;48.714;9.386;2022-12-07T09:32:33;5.30;75.90
44851;DHT22;30583;48.714;9.386;2022-12-07T09:34:59;5.20;76.00
44851;DHT22;30583;48.714;9.386;2022-12-07T09:37:24;5.10;76.20
44851;DHT22;30583;48.714;9.386;2022-12-07T09:39:50;5.10;76.20
44851;DHT22;30583;48.714;9.386;2022-12-07T09:42:32;5.00;76.30
44851;DHT22;30583;48.714;9.386;2022-12-07T09:44:59;5.20;75.80
44851;DHT22;30583;48.714;9.386;2022-12-07T09:47:26;5.20;76.10
44851;DHT22;30583;48.714;9.386;2022-12-07T09:49:55;5.00;76.70
44851;DHT22;30583;48.714;9.386;2022-12-07T09:52:28;5.20;75.80
44851;DHT22;30583;48.714;9.386;2022-12-07T09:54:54;5.10;75.70
44851;DHT22;30583;48.714;9.386;2022-12-07T09:57:29;4.90;76.40
44851;DHT22;30583;48.714;9.386;2022-12-07T10:00:02;5.20;75.30
44851;DHT22;30583;48.714;9.386;2022-12-07T10:02:41;5.40;75.10
44851;DHT22;30583;48.714;9.386;2022-12-07T10:05:14;5.60;74.00
44851;DHT22;30583;48.714;9.386;2022-12-07T10:07:40;5.50;73.80
44851;DHT22;30583;48.714;9.386;2022-12-07T10:10:14;5.40;73.90
44851;DHT22;30583;48.714;9.386;2022-12-07T10:12:55;5.50;72.10
44851;DHT22;30583;48.714;9.386;2022-12-07T10:15:20;5.20;72.60
44851;DHT22;30583;48.714;9.386;2022-12-07T10:17:52;5.50;72.40
44851;DHT22;30583;48.714;9.386;2022-12-07T10:20:24;5.40;72.50
44851;DHT22;30583;48.714;9.386;2022-12-07T10:25:29;5.60;71.60
44851;DHT22;30583;48.714;9.386;2022-12-07T10:28:03;5.50;71.50
44851;DHT22;30583;48.714;9.386;2022-12-07T10:30:57;5.50;72.00
44851;DHT22;30583;48.714;9.386;2022-12-07T10:35:54;5.60;71.80
44851;DHT22;30583;48.714;9.386;2022-12-07T10:38:20;5.60;72.60
44851;DHT22;30583;48.714;9.386;2022-12-07T10:40:45;5.90;71.60
44851;DHT22;30583;48.714;9.386;2022-12-07T10:43:17;5.60;71.80
44851;DHT22;30583;48.714;9.386;2022-12-07T10:46:13;5.70;71.50
44851;DHT22;30583;48.714;9.386;2022-12-07T10:51:39;5.80;71.30
44851;DHT22;30583;48.714;9.386;2022-12-07T10:54:24;5.60;70.80
44851;DHT22;30583;48.714;9.386;2022-12-07T11:05:39;5.70;72.40
44851;DHT22;30583;48.714;9.386;2022-12-07T11:11:02;5.90;71.70
44851;DHT22;30583;48.714;9.386;2022-12-07T11:14:18;6.00;70.40
44851;DHT22;30583;48.714;9.386;2022-12-07T11:16:59;5.80;70.80
44851;DHT22;30583;48.714;9.386;2022-12-07T11:24:58;5.70;71.10
44851;DHT22;30583;48.714;9.386;2022-12-07T11:31:12;5.70;71.80
44851;DHT22;30583;48.714;9.386;2022-12-07T11:33:46;5.70;71.80
44851;DHT22;30583;48.714;9.386;2022-12-07T11:36:39;5.70;71.30
44851;DHT22;30583;48.714;9.386;2022-12-07T11:39:22;5.70;71.30
44851;DHT22;30583;48.714;9.386;2022-12-07T11:41:56;5.80;70.40
44851;DHT22;30583;48.714;9.386;2022-12-07T11:47:13;5.90;70.50
44851;DHT22;30583;48.714;9.386;2022-12-07T11:52:44;5.80;70.00
44851;DHT22;30583;48.714;9.386;2022-12-07T11:55:24;5.90;69.20
44851;DHT22;30583;48.714;9.386;2022-12-07T11:57:58;5.90;69.00
44851;DHT22;30583;48.714;9.386;2022-12-07T12:00:27;5.90;68.80
44851;DHT22;30583;48.714;9.386;2022-12-07T12:03:07;6.00;69.00
44851;DHT22;30583;48.714;9.386;2022-12-07T12:05:34;5.80;68.70
44851;DHT22;30583;48.714;9.386;2022-12-07T12:13:31;5.90;69.10
44851;DHT22;30583;48.714;9.386;2022-12-07T12:19:37;5.90;69.90
44851;DHT22;30583;48.714;9.386;2022-12-07T12:21:58;5.90;69.00
44851;DHT22;30583;48.714;9.386;2022-12-07T12:24:28;5.80;68.70
44851;DHT22;30583;48.714;9.386;2022-12-07T12:27:07;5.90;69.00
44851;DHT22;30583;48.714;9.386;2022-12-07T12:29:36;5.90;68.60
44851;DHT22;30583;48.714;9.386;2022-12-07T12:35:00;5.80;68.60
44851;DHT22;30583;48.714;9.386;2022-12-07T12:37:42;5.90;68.60
44851;DHT22;30583;48.714;9.386;2022-12-07T12:45:29;5.60;69.40
44851;DHT22;30583;48.714;9.386;2022-12-07T12:52:58;5.80;68.70
44851;DHT22;30583;48.714;9.386;2022-12-07T12:55:47;6.00;68.70
44851;DHT22;30583;48.714;9.386;2022-12-07T13:00:44;6.10;68.40
44851;DHT22;30583;48.714;9.386;2022-12-07T13:03:27;6.10;68.50
44851;DHT22;30583;48.714;9.386;2022-12-07T13:06:28;6.10;69.20
44851;DHT22;30583;48.714;9.386;2022-12-07T13:08:59;6.00;68.30
44851;DHT22;30583;48.714;9.386;2022-12-07T13:17:00;5.90;72.40
44851;DHT22;30583;48.714;9.386;2022-12-07T13:22:49;6.00;72.50
44851;DHT22;30583;48.714;9.386;2022-12-07T13:25:22;6.10;72.60
44851;DHT22;30583;48.714;9.386;2022-12-07T13:28:15;6.20;72.70
44851;DHT22;30583;48.714;9.386;2022-12-07T13:31:14;6.20;72.70
44851;DHT22;30583;48.714;9.386;2022-12-07T13:33:44;6.10;73.00
44851;DHT22;30583;48.714;9.386;2022-12-07T13:36:21;6.10;72.90
44851;DHT22;30583;48.714;9.386;2022-12-07T13:38:56;6.00;72.90
44851;DHT22;30583;48.714;9.386;2022-12-07T13:41:24;6.30;72.80
44851;DHT22;30583;48.714;9.386;2022-12-07T13:46:24;6.20;73.10
44851;DHT22;30583;48.714;9.386;2022-12-07T13:48:52;6.30;72.80
44851;DHT22;30583;48.714;9.386;2022-12-07T13:51:36;6.20;73.10
44851;DHT22;30583;48.714;9.386;2022-12-07T13:54:10;6.30;72.70
44851;DHT22;30583;48.714;9.386;2022-12-07T13:56:36;6.10;72.80
44851;DHT22;30583;48.714;9.386;2022-12-07T13:59:03;6.20;72.80
44851;DHT22;30583;48.714;9.386;2022-12-07T14:01:31;6.20;72.80
44851;DHT22;30583;48.714;9.386;2022-12-07T14:04:17;6.20;72.50
44851;DHT22;30583;48.714;9.386;2022-12-07T14:06:51;6.40;71.90
44851;DHT22;30583;48.714;9.386;2022-12-07T14:11:45;6.20;72.00
44851;DHT22;30583;48.714;9.386;2022-12-07T14:17:01;6.10;72.10
44851;DHT22;30583;48.714;9.386;2022-12-07T14:20:27;6.00;73.10
44851;DHT22;30583;48.714;9.386;2022-12-07T14:22:55;6.00;72.20
44851;DHT22;30583;48.714;9.386;2022-12-07T14:25:25;6.10;72.60
44851;DHT22;30583;48.714;9.386;2022-12-07T14:27:53;6.20;71.80
44851;DHT22;30583;48.714;9.386;2022-12-07T14:30:21;6.20;72.30
44851;DHT22;30583;48.714;9.386;2022-12-07T14:32:53;6.20;71.90
44851;DHT22;30583;48.714;9.386;2022-12-07T14:35:19;6.10;71.90
44851;DHT22;30583;48.714;9.386;2022-12-07T14:37:47;6.20;72.60
44851;DHT22;30583;48.714;9.386;2022-12-07T14:40:23;6.20;72.20
44851;DHT22;30583;48.714;9.386;2022-12-07T14:42:57;6.20;72.10
44851;DHT22;30583;48.714;9.386;2022-12-07T14:45:23;6.10;72.30
44851;DHT22;30583;48.714;9.386;2022-12-07T14:47:49;6.10;72.20
44851;DHT22;30583;48.714;9.386;2022-12-07T14:50:18;6.00;72.10
44851;DHT22;30583;48.714;9.386;2022-12-07T14:52:48;6.00;72.40
44851;DHT22;30583;48.714;9.386;2022-12-07T14:55:29;6.20;71.80
44851;DHT22;30583;48.714;9.386;2022-12-07T14:57:55;6.20;71.50
44851;DHT22;30583;48.714;9.386;2022-12-07T15:00:25;6.20;71.70
44851;DHT22;30583;48.714;9.386;2022-12-07T15:02:51;6.30;71.60
44851;DHT22;30583;48.714;9.386;2022-12-07T15:05:18;6.10;71.90
44851;DHT22;30583;48.714;9.386;2022-12-07T15:07:45;6.10;72.00
44851;DHT22;30583;48.714;9.386;2022-12-07T15:10:32;6.20;72.00
44851;DHT22;30583;48.714;9.386;2022-12-07T15:12:59;6.00;72.20
44851;DHT22;30583;48.714;9.386;2022-12-07T15:15:44;6.00;72.40
44851;DHT22;30583;48.714;9.386;2022-12-07T15:18:10;6.20;71.80
44851;DHT22;30583;48.714;9.386;2022-12-07T15:20:35;6.10;71.60
44851;DHT22;30583;48.714;9.386;2022-12-07T15:23:01;6.20;71.40
44851;DHT22;30583;48.714;9.386;2022-12-07T15:25:27;6.10;70.90
44851;DHT22;30583;48.714;9.386;2022-12-07T15:27:52;6.00;71.80
44851;DHT22;30583;48.714;9.386;2022-12-07T15:30:18;6.00;71.70
44851;DHT22;30583;48.714;9.386;2022-12-07T15:32:43;6.30;71.20
44851;DHT22;30583;48.714;9.386;2022-12-07T15:35:09;6.20;71.30
44851;DHT22;30583;48.714;9.386;2022-12-07T15:37:35;6.10;71.60
44851;DHT22;30583;48.714;9.386;2022-12-07T15:40:00;6.10;71.70
44851;DHT22;30583;48.714;9.386;2022-12-07T15:42:26;6.10;71.70
44851;DHT22;30583;48.714;9.386;2022-12-07T15:44:51;6.10;71.20
44851;DHT22;30583;48.714;9.386;2022-12-07T15:47:30;6.20;70.90
44851;DHT22;30583;48.714;9.386;2022-12-07T15:49:55;6.00;71.50
44851;DHT22;30583;48.714;9.386;2022-12-07T15:52:21;5.90;71.70
44851;DHT22;30583;48.714;9.386;2022-12-07T15:54:47;6.00;71.90
44851;DHT22;30583;48.714;9.386;2022-12-07T15:57:13;6.10;71.70
44851;DHT22;30583;48.714;9.386;2022-12-07T15:59:38;6.10;71.50
44851;DHT22;30583;48.714;9.386;2022-12-07T16:02:04;6.10;71.50
44851;DHT22;30583;48.714;9.386;2022-12-07T16:04:30;6.10;71.40
44851;DHT22;30583;48.714;9.386;2022-12-07T16:06:55;6.00;71.90
44851;DHT22;30583;48.714;9.386;2022-12-07T16:09:21;6.00;72.00
44851;DHT22;30583;48.714;9.386;2022-12-07T16:11:47;5.90;72.20
44851;DHT22;30583;48.714;9.386;2022-12-07T16:14:15;6.00;72.10
44851;DHT22;30583;48.714;9.386;2022-12-07T16:16:41;6.10;71.70
44851;DHT22;30583;48.714;9.386;2022-12-07T16:19:07;6.20;71.70
44851;DHT22;30583;48.714;9.386;2022-12-07T16:21:33;6.10;72.00
44851;DHT22;30583;48.714;9.386;2022-12-07T16:23:59;6.10;71.70
44851;DHT22;30583;48.714;9.386;2022-12-07T16:26:25;6.10;71.50
44851;DHT22;30583;48.714;9.386;2022-12-07T16:28:52;5.80;72.70
44851;DHT22;30583;48.714;9.386;2022-12-07T16:31:20;5.90;72.50
44851;DHT22;30583;48.714;9.386;2022-12-07T16:33:47;6.10;72.20
44851;DHT22;30583;48.714;9.386;2022-12-07T16:36:13;6.00;72.10
44851;DHT22;30583;48.714;9.386;2022-12-07T16:38:41;5.60;73.20
44851;DHT22;30583;48.714;9.386;2022-12-07T16:41:07;5.70;73.60
44851;DHT22;30583;48.714;9.386;2022-12-07T16:43:34;5.60;73.80
44851;DHT22;30583;48.714;9.386;2022-12-07T16:45:59;5.60;73.50
44851;DHT22;30583;48.714;9.386;2022-12-07T16:48:25;5.70;73.70
44851;DHT22;30583;48.714;9.386;2022-12-07T16:50:51;5.80;72.90
44851;DHT22;30583;48.714;9.386;2022-12-07T16:53:20;5.80;73.20
44851;DHT22;30583;48.714;9.386;2022-12-07T16:55:46;5.70;73.20
44851;DHT22;30583;48.714;9.386;2022-12-07T16:58:13;5.80;73.00
44851;DHT22;30583;48.714;9.386;2022-12-07T17:00:40;5.70;73.20
44851;DHT22;30583;48.714;9.386;2022-12-07T17:03:06;9.40;80.10
44851;DHT22;30583;48.714;9.386;2022-12-07T17:05:32;11.10;66.50
44851;DHT22;30583;48.714;9.386;2022-12-07T17:07:58;8.20;63.50
44851;DHT22;30583;48.714;9.386;2022-12-07T17:10:25;6.60;67.90
44851;DHT22;30583;48.714;9.386;2022-12-07T17:12:51;6.10;70.20
44851;DHT22;30583;48.714;9.386;2022-12-07T17:15:17;6.10;70.20
44851;DHT22;30583;48.714;9.386;2022-12-07T17:17:53;5.90;71.00
44851;DHT22;30583;48.714;9.386;2022-12-07T17:20:21;5.70;71.50
44851;DHT22;30583;48.714;9.386;2022-12-07T17:22:47;5.60;71.80
44851;DHT22;30583;48.714;9.386;2022-12-07T17:25:14;5.40;72.40
44851;DHT22;30583;48.714;9.386;2022-12-07T17:27:39;5.50;72.50
44851;DHT22;30583;48.714;9.386;2022-12-07T17:30:06;5.20;72.40
44851;DHT22;30583;48.714;9.386;2022-12-07T17:32:32;5.40;72.30
44851;DHT22;30583;48.714;9.386;2022-12-07T17:34:58;5.40;71.80
44851;DHT22;30583;48.714;9.386;2022-12-07T17:37:25;5.40;71.40
44851;DHT22;30583;48.714;9.386;2022-12-07T17:39:52;5.40;71.80
44851;DHT22;30583;48.714;9.386;2022-12-07T17:42:17;5.30;71.70
44851;DHT22;30583;48.714;9.386;2022-12-07T17:45:08;5.30;72.30
44851;DHT22;30583;48.714;9.386;2022-12-07T17:47:38;5.20;72.10
44851;DHT22;30583;48.714;9.386;2022-12-07T17:50:05;5.40;71.60
44851;DHT22;30583;48.714;9.386;2022-12-07T17:52:31;5.30;71.50